首页
METAR-TAF:

METAR-TAF

机场 :

Stony Rapids, 薩斯喀徹溫, 加拿大

纬度: 59-15N, 经度: 105-50W, 海拔: 250米

当前天气观测

该预报发布于32分钟前的19:00 UTC
风速2节,风向多变
温度 -19°C
湿度 70%
气压 1018 hPa
能見度: 14.5公里
天空无云

METAR: CYSF 191900Z AUTO VRB02KT 9SM CLR M19/M23 A3007 RMK SLP222

时间: 13:32 (19:32 UTC)

预报

该预报发布于1小时和53分钟前的17:39 UTC
预报有效从19日的 18点(UTC)到 20日的 06点(UTC)
风速3节,风向多变
能見度: 10公里
少量云层高于5000英尺

TAF: CYSF 191739Z 1918/2006 VRB03KT P6SM FEW050 RMK FCST BASED ON AUTO OBS. NXT FCST BY 200000Z

超过4000个机场的气象观测和天气预报(METAR&TAF报告)。

可查询的气象台以黄色和红色小点在地图上表示。

将鼠标移到小点上方,可查看气象台名称。

然后点击查看天气观测和预报。

如需切换地图:点击带黑十字的绿色按钮放大地图;点击带横线的绿色按钮缩小地图;或者点击绿色箭头查看邻近地区的地图。


METAR-TAF: